Norfolk, Virginia
Traffic Map
Current Weather Conditions
Norfolk, Virginia
Broken Clouds
Broken Clouds
56°
Feels Like: 56°
Wind Chill: 56° Ceiling: 7500
Heat Index: 56° Visibility: 10mi
Dew Point: 52° Wind: 7mph
Humidity: 87% Direction: 200° (SSW)
Pressure: 30.13in Gusts: 0mph
Raw Report DataKORF 271051Z 20006KT 10SM FEW037 BKN075 13/11 A3013 RMK AO2 SLP203 T01330111
Traffic Incident Summary
Active as of:
Severity:
Category:
InformationThere was an issue retrieving the traffic information for this location. Please try a different location or try again shortly.
Advertisements
Track Severe Weather on mobile